createdAt,value
2019-05-12T00:01:09.652Z,13.50
2019-05-12T00:03:37.817Z,13.50
2019-05-12T00:06:05.403Z,13.50
2019-05-12T00:08:32.842Z,13.50
2019-05-12T00:11:00.303Z,13.50
2019-05-12T00:13:28.057Z,13.50
2019-05-12T00:15:55.576Z,13.40
2019-05-12T00:18:24.278Z,13.40
2019-05-12T00:20:51.585Z,13.40
2019-05-12T00:23:27.533Z,13.40
2019-05-12T00:25:49.287Z,13.50
2019-05-12T00:28:17.930Z,13.50
2019-05-12T00:30:48.940Z,13.50
2019-05-12T00:33:17.992Z,13.50
2019-05-12T00:35:48.130Z,13.50
2019-05-12T00:38:17.524Z,13.40
2019-05-12T00:40:44.599Z,13.50
2019-05-12T00:43:12.130Z,13.50
2019-05-12T00:45:39.644Z,13.50
2019-05-12T00:48:09.080Z,13.50
2019-05-12T00:50:38.181Z,13.50
2019-05-12T00:53:08.609Z,13.50
2019-05-12T00:55:37.817Z,13.40
2019-05-12T00:58:04.785Z,13.40
2019-05-12T01:00:32.376Z,13.40
2019-05-12T01:02:59.687Z,13.40
2019-05-12T01:05:29.423Z,13.40
2019-05-12T01:07:58.360Z,13.30
2019-05-12T01:10:28.314Z,13.30
2019-05-12T01:12:57.858Z,13.30
2019-05-12T01:15:24.672Z,13.40
2019-05-12T01:17:51.997Z,13.30
2019-05-12T01:20:19.527Z,13.30
2019-05-12T01:22:50.333Z,13.20
2019-05-12T01:25:17.639Z,13.30
2019-05-12T01:27:45.113Z,13.20
2019-05-12T01:30:12.774Z,13.20
2019-05-12T01:32:40.555Z,13.20
2019-05-12T01:35:09.300Z,13.20
2019-05-12T01:37:38.448Z,13.10
2019-05-12T01:40:08.749Z,13.10
2019-05-12T01:42:38.209Z,13.10
2019-05-12T01:45:09.222Z,13.00
2019-05-12T01:47:38.258Z,13.00
2019-05-12T01:50:09.114Z,13.00
2019-05-12T01:52:38.722Z,13.00
2019-05-12T01:55:08.158Z,12.90
2019-05-12T01:57:38.258Z,12.90
2019-05-12T02:00:09.390Z,12.90
2019-05-12T02:02:38.615Z,13.00
2019-05-12T02:05:08.786Z,12.90
2019-05-12T02:07:41.333Z,12.90
2019-05-12T02:10:09.924Z,12.90
2019-05-12T02:12:38.347Z,12.90
2019-05-12T02:15:08.335Z,12.80
2019-05-12T02:17:35.943Z,12.80
2019-05-12T02:20:07.680Z,12.80
2019-05-12T02:22:34.932Z,12.80
2019-05-12T02:25:02.667Z,12.80
2019-05-12T02:27:30.093Z,12.70
2019-05-12T02:29:58.613Z,12.70
2019-05-12T02:32:35.505Z,12.60
2019-05-12T02:34:55.915Z,12.70
2019-05-12T02:37:26.235Z,12.70
2019-05-12T02:39:55.653Z,12.50
2019-05-12T02:42:24.409Z,12.70
2019-05-12T02:44:54.983Z,12.70
2019-05-12T02:47:24.022Z,12.60
2019-05-12T02:49:50.693Z,12.80
2019-05-12T02:52:18.943Z,12.60
2019-05-12T02:54:55.266Z,12.60
2019-05-12T02:57:17.624Z,12.60
2019-05-12T02:59:47.131Z,12.70
2019-05-12T03:02:15.206Z,12.60
2019-05-12T03:04:44.264Z,12.60
2019-05-12T03:07:15.381Z,12.60
2019-05-12T03:09:44.562Z,12.50
2019-05-12T03:12:10.937Z,12.50
2019-05-12T03:14:41.041Z,12.60
2019-05-12T03:17:07.533Z,12.60
2019-05-12T03:19:34.874Z,12.60
2019-05-12T03:22:05.040Z,12.60
2019-05-12T03:24:34.222Z,12.70
2019-05-12T03:27:04.138Z,12.70
2019-05-12T03:29:30.274Z,12.70
2019-05-12T03:31:57.738Z,12.80
2019-05-12T03:34:29.334Z,12.80
2019-05-12T03:36:58.868Z,12.80
2019-05-12T03:39:25.156Z,12.80
2019-05-12T03:41:54.646Z,12.90
2019-05-12T03:44:25.005Z,12.90
2019-05-12T03:46:54.202Z,12.90
2019-05-12T03:49:20.641Z,13.00
2019-05-12T03:51:48.038Z,13.00
2019-05-12T03:54:15.624Z,13.00
2019-05-12T03:56:45.045Z,13.10
2019-05-12T03:59:14.685Z,13.10
2019-05-12T04:01:44.807Z,13.10
2019-05-12T04:04:10.779Z,13.20
2019-05-12T04:06:38.358Z,13.30
2019-05-12T04:09:08.225Z,13.40
2019-05-12T04:11:37.412Z,13.40
2019-05-12T04:14:05.591Z,13.50
2019-05-12T04:16:36.382Z,13.60
2019-05-12T04:19:05.272Z,13.70
2019-05-12T04:21:35.058Z,13.80
2019-05-12T04:24:05.403Z,13.80
2019-05-12T04:26:36.109Z,14.00
2019-05-12T04:29:04.816Z,14.00
2019-05-12T04:31:31.050Z,14.00
2019-05-12T04:33:58.402Z,14.10
2019-05-12T04:36:25.983Z,14.10
2019-05-12T04:38:55.660Z,14.20
2019-05-12T04:41:25.623Z,14.30
2019-05-12T04:43:54.917Z,14.30
2019-05-12T04:46:21.255Z,14.40
2019-05-12T04:48:48.576Z,14.40
2019-05-12T04:51:16.108Z,14.30
2019-05-12T04:53:44.855Z,14.60
2019-05-12T04:56:19.259Z,14.60
2019-05-12T04:58:45.052Z,14.60
2019-05-12T05:01:15.454Z,14.70
2019-05-12T05:03:44.300Z,14.90
2019-05-12T05:06:14.543Z,14.80
2019-05-12T05:08:44.275Z,14.90
2019-05-12T05:11:11.015Z,15.00
2019-05-12T05:13:39.796Z,15.10
2019-05-12T05:16:07.480Z,15.30
2019-05-12T05:18:35.100Z,15.40
2019-05-12T05:21:04.730Z,15.50
2019-05-12T05:23:33.550Z,15.60
2019-05-12T05:26:03.169Z,15.80
2019-05-12T05:28:30.353Z,16.00
2019-05-12T05:30:57.731Z,16.00
2019-05-12T05:33:25.368Z,16.20
2019-05-12T05:35:54.322Z,16.30
2019-05-12T05:38:23.698Z,16.50
2019-05-12T05:40:51.294Z,16.60
2019-05-12T05:43:18.962Z,16.80
2019-05-12T05:45:46.335Z,17.00
2019-05-12T05:48:14.192Z,17.10
2019-05-12T05:50:43.725Z,17.40
2019-05-12T05:53:17.943Z,17.30
2019-05-12T05:55:40.164Z,17.40
2019-05-12T05:58:10.352Z,17.50
2019-05-12T06:00:39.355Z,17.70
2019-05-12T06:03:06.265Z,17.90
2019-05-12T06:05:35.430Z,17.90
2019-05-12T06:08:04.166Z,18.10
2019-05-12T06:10:36.057Z,18.30
2019-05-12T06:13:01.023Z,18.50
2019-05-12T06:15:29.679Z,18.80
2019-05-12T06:17:58.866Z,18.90
2019-05-12T06:20:29.395Z,19.00
2019-05-12T06:22:57.703Z,19.10
2019-05-12T06:25:26.535Z,19.10
2019-05-12T06:28:00.156Z,19.10
2019-05-12T06:30:24.288Z,19.00
2019-05-12T06:32:54.460Z,19.10
2019-05-12T06:35:21.068Z,19.20
2019-05-12T06:37:57.329Z,19.20
2019-05-12T06:40:18.254Z,19.20
2019-05-12T06:42:48.301Z,19.30
2019-05-12T06:45:15.074Z,19.40
2019-05-12T06:47:45.354Z,19.50
2019-05-12T06:50:14.308Z,19.70
2019-05-12T06:52:44.622Z,20.00
2019-05-12T06:55:10.776Z,20.30
2019-05-12T06:57:44.992Z,20.60
2019-05-12T07:00:09.621Z,21.00
2019-05-12T07:02:49.055Z,21.40
2019-05-12T07:05:06.663Z,21.70
2019-05-12T07:07:42.184Z,22.00
2019-05-12T07:10:11.780Z,22.40
2019-05-12T07:12:54.114Z,23.00
2019-05-12T07:15:07.223Z,23.50
2019-05-12T07:17:59.619Z,24.30
2019-05-12T07:20:29.097Z,25.00
2019-05-12T07:22:59.340Z,25.80
2019-05-12T07:25:31.297Z,26.50
2019-05-12T07:28:00.734Z,27.20
2019-05-12T07:30:27.516Z,28.00
2019-05-12T07:32:59.913Z,28.50
2019-05-12T07:35:28.537Z,28.60
2019-05-12T07:37:57.534Z,28.70
2019-05-12T07:40:29.986Z,28.70
2019-05-12T07:42:56.638Z,28.70
2019-05-12T07:45:25.226Z,28.90
2019-05-12T07:47:54.153Z,29.50
2019-05-12T07:50:26.492Z,30.10
2019-05-12T07:52:51.402Z,30.30
2019-05-12T07:55:19.047Z,30.10
2019-05-12T07:57:55.227Z,29.70
2019-05-12T08:00:25.761Z,29.20
2019-05-12T08:02:46.330Z,28.90
2019-05-12T08:05:19.670Z,28.80
2019-05-12T08:07:45.203Z,28.50
2019-05-12T08:10:19.988Z,28.20
2019-05-12T08:12:51.174Z,27.80
2019-05-12T08:15:16.175Z,27.50
2019-05-12T08:17:55.369Z,27.50
2019-05-12T08:20:19.623Z,27.40
2019-05-12T08:22:49.103Z,27.30
2019-05-12T08:25:18.910Z,27.40
2019-05-12T08:27:50.252Z,27.50
2019-05-12T08:30:17.574Z,27.60
2019-05-12T08:32:45.062Z,27.50
2019-05-12T08:35:14.012Z,27.40
2019-05-12T08:37:43.944Z,27.30
2019-05-12T08:40:11.254Z,27.20
2019-05-12T08:42:38.814Z,27.30
2019-05-12T08:45:08.257Z,27.40
2019-05-12T08:47:38.898Z,27.50
2019-05-12T08:50:07.562Z,28.40
2019-05-12T08:52:37.201Z,30.50
2019-05-12T08:55:04.854Z,32.60
2019-05-12T08:57:40.516Z,33.90
2019-05-12T09:00:03.439Z,35.50
2019-05-12T09:02:34.455Z,37.00
2019-05-12T09:05:04.654Z,37.50
2019-05-12T09:07:35.936Z,37.10
2019-05-12T09:10:04.112Z,36.90
2019-05-12T09:12:33.871Z,37.40
2019-05-12T09:15:01.421Z,37.60
2019-05-12T09:17:29.403Z,37.40
2019-05-12T09:20:05.984Z,37.00
2019-05-12T09:22:34.159Z,36.10
2019-05-12T09:25:06.347Z,35.30
2019-05-12T09:27:33.472Z,34.50
2019-05-12T09:30:09.684Z,33.80
2019-05-12T09:32:39.177Z,33.50
2019-05-12T09:35:11.212Z,32.40
2019-05-12T09:37:44.175Z,31.00
2019-05-12T09:40:20.649Z,29.50
2019-05-12T09:42:47.709Z,28.30
2019-05-12T09:45:15.720Z,27.50
2019-05-12T09:47:43.631Z,26.80
2019-05-12T09:50:18.366Z,26.20
2019-05-12T09:52:43.899Z,25.80
2019-05-12T09:55:10.843Z,25.30
2019-05-12T09:57:42.960Z,25.10
2019-05-12T10:00:13.611Z,24.80
2019-05-12T10:02:45.948Z,24.60
2019-05-12T10:05:14.697Z,24.60
2019-05-12T10:07:44.380Z,24.60
2019-05-12T10:10:14.027Z,24.80
2019-05-12T10:12:46.154Z,25.00
2019-05-12T10:15:13.326Z,25.50
2019-05-12T10:17:40.670Z,25.90
2019-05-12T10:20:08.512Z,25.90
2019-05-12T10:22:39.970Z,26.10
2019-05-12T10:25:07.353Z,26.40
2019-05-12T10:27:35.077Z,26.80
2019-05-12T10:30:11.889Z,27.90
2019-05-12T10:32:34.981Z,30.70
2019-05-12T10:35:03.745Z,32.80
2019-05-12T10:37:31.244Z,35.10
2019-05-12T10:39:58.673Z,36.80
2019-05-12T10:42:25.990Z,36.90
2019-05-12T10:44:56.535Z,37.60
2019-05-12T10:47:26.190Z,38.50
2019-05-12T10:49:53.967Z,38.80
2019-05-12T10:52:21.521Z,40.10
2019-05-12T10:54:49.203Z,40.60
2019-05-12T10:57:16.773Z,40.70
2019-05-12T10:59:48.421Z,41.00
2019-05-12T11:02:13.978Z,41.30
2019-05-12T11:04:43.939Z,40.40
2019-05-12T11:07:13.474Z,39.30
2019-05-12T11:09:40.846Z,38.00
2019-05-12T11:12:19.202Z,36.70
2019-05-12T11:14:44.046Z,35.30
2019-05-12T11:17:13.723Z,33.30
2019-05-12T11:19:47.173Z,31.90
2019-05-12T11:22:10.540Z,30.40
2019-05-12T11:24:37.919Z,29.10
2019-05-12T11:27:05.382Z,27.80
2019-05-12T11:29:45.574Z,26.90
2019-05-12T11:32:03.970Z,26.20
2019-05-12T11:34:33.543Z,25.50
2019-05-12T11:37:03.273Z,25.00
2019-05-12T11:39:37.178Z,24.60
2019-05-12T11:42:01.048Z,24.00
2019-05-12T11:44:29.211Z,23.50
2019-05-12T11:46:57.032Z,23.10
2019-05-12T11:49:26.427Z,22.80
2019-05-12T11:51:54.418Z,22.60
2019-05-12T11:54:24.082Z,22.30
2019-05-12T11:56:53.390Z,22.10
2019-05-12T11:59:20.486Z,21.90
2019-05-12T12:01:51.493Z,21.70
2019-05-12T12:04:18.058Z,21.60
2019-05-12T12:06:45.527Z,21.60
2019-05-12T12:09:15.309Z,21.70
2019-05-12T12:11:43.391Z,21.60
2019-05-12T12:14:10.811Z,21.60
2019-05-12T12:16:41.929Z,21.60
2019-05-12T12:19:08.398Z,21.70
2019-05-12T12:21:40.526Z,22.00
2019-05-12T12:24:06.533Z,22.20
2019-05-12T12:26:37.314Z,22.60
2019-05-12T12:29:05.541Z,22.70
2019-05-12T12:31:53.632Z,22.50
2019-05-12T12:34:25.092Z,22.20
2019-05-12T12:36:54.172Z,21.60
2019-05-12T12:39:23.803Z,21.00
2019-05-12T12:41:58.323Z,20.40
2019-05-12T12:44:24.043Z,19.90
2019-05-12T12:46:59.942Z,19.50
2019-05-12T12:49:29.101Z,19.10
2019-05-12T12:51:56.408Z,18.80
2019-05-12T12:54:23.777Z,18.50
2019-05-12T12:56:53.929Z,18.30
2019-05-12T12:59:24.516Z,18.00
2019-05-12T13:01:52.848Z,17.60
2019-05-12T13:04:20.323Z,17.30
2019-05-12T13:06:48.659Z,17.00
2019-05-12T13:09:24.184Z,16.80
2019-05-12T13:11:47.567Z,16.60
2019-05-12T13:14:15.025Z,16.40
2019-05-12T13:16:43.730Z,16.30
2019-05-12T13:19:13.138Z,16.10
2019-05-12T13:21:40.531Z,15.90
2019-05-12T13:24:09.205Z,15.80
2019-05-12T13:26:36.664Z,15.60
2019-05-12T13:29:04.436Z,15.50
2019-05-12T13:31:33.303Z,15.30
2019-05-12T13:34:00.778Z,15.30
2019-05-12T13:36:29.631Z,15.30
2019-05-12T13:38:57.950Z,15.20
2019-05-12T13:41:26.595Z,15.20
2019-05-12T13:43:59.028Z,15.10
2019-05-12T13:46:24.477Z,15.00
2019-05-12T13:48:57.593Z,15.00
2019-05-12T13:51:24.164Z,14.90
2019-05-12T13:53:52.168Z,14.80
2019-05-12T13:56:27.390Z,14.70
2019-05-12T13:58:54.002Z,14.60
2019-05-12T14:01:24.876Z,14.50
2019-05-12T14:03:53.616Z,14.30
2019-05-12T14:06:23.070Z,14.20
2019-05-12T14:08:53.599Z,14.10
2019-05-12T14:11:24.017Z,13.90
2019-05-12T14:13:51.779Z,13.90
2019-05-12T14:16:19.524Z,13.70
2019-05-12T14:18:51.171Z,13.60
2019-05-12T14:21:18.407Z,13.50
2019-05-12T14:23:46.269Z,13.40
2019-05-12T14:26:14.639Z,13.30
2019-05-12T14:28:49.602Z,13.20
2019-05-12T14:31:26.614Z,13.20
2019-05-12T14:33:45.960Z,13.20
2019-05-12T14:36:21.564Z,13.10
2019-05-12T14:38:43.890Z,13.10
2019-05-12T14:41:13.883Z,13.00
2019-05-12T14:43:47.083Z,12.90
2019-05-12T14:46:13.473Z,12.80
2019-05-12T14:48:48.467Z,12.80
2019-05-12T14:51:11.327Z,12.70
2019-05-12T14:53:41.405Z,12.60
2019-05-12T14:56:13.912Z,12.60
2019-05-12T14:58:41.013Z,12.40
2019-05-12T15:01:08.488Z,12.50
2019-05-12T15:03:36.982Z,12.50
2019-05-12T15:06:07.233Z,12.50
2019-05-12T15:08:37.199Z,12.30
2019-05-12T15:11:04.075Z,12.50
2019-05-12T15:13:34.272Z,12.30
2019-05-12T15:16:04.693Z,12.20
2019-05-12T15:18:32.901Z,12.10
2019-05-12T15:21:00.270Z,12.10
2019-05-12T15:23:32.584Z,12.10
2019-05-12T15:25:57.562Z,12.10
2019-05-12T15:28:25.021Z,12.00
2019-05-12T15:30:54.143Z,12.00
2019-05-12T15:33:24.104Z,11.90
2019-05-12T15:36:15.665Z,11.90
2019-05-12T15:38:43.882Z,11.90
2019-05-12T15:41:16.920Z,11.80
2019-05-12T15:43:46.811Z,11.90
2019-05-12T15:46:10.399Z,11.90
2019-05-12T15:48:38.442Z,11.90
2019-05-12T15:51:08.564Z,11.90
2019-05-12T15:53:35.885Z,11.90
2019-05-12T15:56:05.733Z,11.80
2019-05-12T15:58:33.629Z,11.80
2019-05-12T16:01:01.296Z,11.80
2019-05-12T16:03:28.711Z,11.80
2019-05-12T16:06:01.301Z,11.80
2019-05-12T16:08:26.255Z,11.80
2019-05-12T16:10:56.189Z,11.70
2019-05-12T16:13:24.394Z,11.70
2019-05-12T16:15:57.704Z,11.70
2019-05-12T16:18:23.886Z,11.70
2019-05-12T16:20:53.653Z,11.50
2019-05-12T16:23:24.922Z,11.70
2019-05-12T16:25:50.492Z,11.70
2019-05-12T16:28:23.460Z,11.70
2019-05-12T16:30:47.935Z,11.70
2019-05-12T16:33:20.523Z,11.70
2019-05-12T16:35:45.710Z,11.70
2019-05-12T16:38:19.668Z,11.70
2019-05-12T16:40:45.636Z,11.70
2019-05-12T16:43:14.492Z,11.70
2019-05-12T16:45:42.035Z,11.70
2019-05-12T16:48:28.208Z,11.60
2019-05-12T16:50:40.309Z,11.80
2019-05-12T16:53:13.366Z,11.70
2019-05-12T16:55:44.860Z,11.60
2019-05-12T16:58:06.446Z,11.60
2019-05-12T17:00:34.054Z,11.60
2019-05-12T17:03:03.875Z,11.60
2019-05-12T17:05:33.503Z,11.60
2019-05-12T17:08:04.035Z,11.60
2019-05-12T17:10:30.892Z,11.70
2019-05-12T17:12:58.255Z,11.50
2019-05-12T17:15:25.706Z,11.50
2019-05-12T17:17:59.219Z,11.60
2019-05-12T17:20:25.275Z,11.50
2019-05-12T17:22:55.226Z,11.50
2019-05-12T17:25:23.957Z,11.50
2019-05-12T17:27:51.610Z,11.50
2019-05-12T17:30:19.234Z,11.50
2019-05-12T17:32:57.968Z,11.50
2019-05-12T17:35:20.400Z,11.50
2019-05-12T17:37:45.593Z,11.50
2019-05-12T17:40:18.345Z,11.50
2019-05-12T17:42:44.088Z,11.50
2019-05-12T17:45:15.867Z,11.50
2019-05-12T17:47:44.530Z,11.50
2019-05-12T17:50:13.629Z,11.60
2019-05-12T17:52:41.349Z,11.50
2019-05-12T17:55:10.900Z,11.50
2019-05-12T17:57:38.371Z,11.40
2019-05-12T18:00:10.653Z,11.40
2019-05-12T18:02:35.873Z,11.50
2019-05-12T18:05:07.672Z,11.50
2019-05-12T18:10:48.746Z,11.40
2019-05-12T18:13:23.159Z,11.30
2019-05-12T18:15:46.559Z,11.30
2019-05-12T18:18:17.416Z,11.30
2019-05-12T18:20:44.649Z,11.30
2019-05-12T18:23:13.416Z,11.20
2019-05-12T18:25:44.278Z,11.20
2019-05-12T18:28:13.966Z,11.20
2019-05-12T18:30:41.828Z,11.20
2019-05-12T18:33:09.595Z,11.10
2019-05-12T18:35:37.142Z,11.20
2019-05-12T18:38:07.858Z,11.10
2019-05-12T18:40:34.711Z,11.10
2019-05-12T18:43:03.945Z,11.00
2019-05-12T18:45:33.472Z,11.10
2019-05-12T18:48:08.353Z,11.00
2019-05-12T18:50:34.280Z,11.00
2019-05-12T18:53:01.297Z,11.00
2019-05-12T18:55:34.960Z,11.00
2019-05-12T18:57:59.811Z,10.90
2019-05-12T19:00:28.061Z,11.00
2019-05-12T19:02:59.613Z,11.00
2019-05-12T19:05:30.527Z,10.90
2019-05-12T19:07:56.015Z,10.90
2019-05-12T19:10:24.225Z,10.90
2019-05-12T19:13:01.129Z,10.90
2019-05-12T19:15:22.531Z,10.80
2019-05-12T19:17:50.299Z,10.80
2019-05-12T19:20:19.812Z,10.80
2019-05-12T19:22:56.164Z,10.70
2019-05-12T19:25:19.471Z,10.70
2019-05-12T19:27:54.986Z,10.60
2019-05-12T19:30:19.508Z,10.70
2019-05-12T19:32:54.770Z,10.70
2019-05-12T19:35:23.655Z,10.70
2019-05-12T19:37:53.868Z,10.70
2019-05-12T19:40:23.272Z,10.60
2019-05-12T19:43:06.182Z,10.60
2019-05-12T19:45:35.491Z,10.60
2019-05-12T19:48:04.100Z,10.60
2019-05-12T19:50:32.009Z,10.60
2019-05-12T19:52:59.766Z,10.60
2019-05-12T19:55:28.528Z,10.60
2019-05-12T19:57:56.388Z,10.60
2019-05-12T20:00:25.421Z,10.60
2019-05-12T20:02:53.782Z,10.50
2019-05-12T20:05:23.692Z,10.50
2019-05-12T20:07:53.562Z,10.50
2019-05-12T20:10:21.025Z,10.50
2019-05-12T20:12:53.893Z,10.50
2019-05-12T20:15:18.579Z,10.50
2019-05-12T20:17:48.738Z,10.50
2019-05-12T20:20:17.995Z,10.50
2019-05-12T20:22:45.990Z,10.50
2019-05-12T20:25:14.611Z,10.50
2019-05-12T20:27:56.166Z,10.50
2019-05-12T20:30:21.310Z,10.50
2019-05-12T20:32:48.766Z,10.50
2019-05-12T20:35:16.190Z,10.40
2019-05-12T20:37:52.795Z,10.40
2019-05-12T20:40:13.934Z,10.40
2019-05-12T20:42:53.853Z,10.40
2019-05-12T20:45:13.411Z,10.40
2019-05-12T20:47:44.816Z,10.40
2019-05-12T20:50:10.191Z,10.40
2019-05-12T20:52:39.296Z,10.40
2019-05-12T20:55:07.398Z,10.40
2019-05-12T20:57:34.914Z,10.40
2019-05-12T21:00:08.283Z,10.40
2019-05-12T21:02:34.541Z,10.40
2019-05-12T21:05:09.433Z,10.40
2019-05-12T21:07:33.609Z,10.40
2019-05-12T21:10:00.854Z,10.30
2019-05-12T21:12:28.296Z,10.30
2019-05-12T21:15:11.453Z,10.20
2019-05-12T21:17:39.378Z,10.20
2019-05-12T21:19:59.186Z,10.20
2019-05-12T21:22:23.816Z,10.20
2019-05-12T21:24:53.458Z,10.10
2019-05-12T21:27:21.631Z,10.10
2019-05-12T21:29:49.069Z,10.10
2019-05-12T21:32:17.635Z,10.10
2019-05-12T21:34:46.071Z,10.10
2019-05-12T21:37:14.074Z,10.10
2019-05-12T21:39:46.864Z,10.00
2019-05-12T21:42:11.110Z,10.00
2019-05-12T21:44:41.361Z,10.00
2019-05-12T21:47:10.556Z,10.00
2019-05-12T21:49:37.556Z,10.00
2019-05-12T21:52:06.542Z,10.00
2019-05-12T21:54:36.149Z,10.00
2019-05-12T21:57:03.764Z,10.00
2019-05-12T21:59:35.363Z,10.00
2019-05-12T22:02:00.767Z,10.00
2019-05-12T22:04:32.922Z,10.00
2019-05-12T22:06:59.082Z,10.00
2019-05-12T22:09:26.554Z,10.00
2019-05-12T22:11:56.395Z,10.00
2019-05-12T22:14:24.031Z,10.00
2019-05-12T22:16:53.593Z,10.00
2019-05-12T22:19:21.257Z,10.00
2019-05-12T22:21:49.595Z,10.00
2019-05-12T22:24:17.339Z,9.90
2019-05-12T22:26:46.702Z,9.90
2019-05-12T22:29:15.290Z,9.90
2019-05-12T22:31:44.969Z,9.90
2019-05-12T22:34:12.030Z,9.90
2019-05-12T22:36:45.238Z,9.90
2019-05-12T22:39:10.737Z,9.90
2019-05-12T22:41:41.414Z,9.80
2019-05-12T22:44:07.633Z,9.80
2019-05-12T22:46:35.809Z,9.90
2019-05-12T22:49:04.220Z,9.90
2019-05-12T22:51:31.704Z,9.90
2019-05-12T22:54:00.636Z,9.90
2019-05-12T22:56:30.077Z,9.90
2019-05-12T22:59:00.087Z,9.80
2019-05-12T23:01:33.891Z,9.90
2019-05-12T23:03:59.435Z,9.90
2019-05-12T23:06:35.869Z,9.80
2019-05-12T23:08:57.645Z,9.80
2019-05-12T23:11:31.975Z,9.80
2019-05-12T23:13:54.319Z,9.80
2019-05-12T23:16:27.640Z,9.90
2019-05-12T23:18:53.721Z,9.80
2019-05-12T23:21:21.418Z,9.90
2019-05-12T23:23:50.146Z,9.80
2019-05-12T23:26:18.267Z,9.80
2019-05-12T23:28:46.739Z,9.80
2019-05-12T23:31:19.472Z,9.80
2019-05-12T23:33:44.246Z,9.80
2019-05-12T23:36:15.801Z,9.80
2019-05-12T23:38:43.921Z,9.80
2019-05-12T23:41:13.593Z,9.80
2019-05-12T23:43:40.958Z,9.80
2019-05-12T23:46:08.373Z,9.80
2019-05-12T23:48:35.676Z,9.80
2019-05-12T23:51:03.843Z,9.80
2019-05-12T23:53:33.683Z,9.80
2019-05-12T23:56:03.784Z,9.80
2019-05-12T23:58:31.203Z,9.80
